createdAt,value
2023-12-10T00:00:45.695Z,74.83
2023-12-10T00:03:13.478Z,74.86
2023-12-10T00:05:41.102Z,75.01
2023-12-10T00:08:08.786Z,75.29
2023-12-10T00:10:36.284Z,75.23
2023-12-10T00:13:03.809Z,75.27
2023-12-10T00:15:31.371Z,75.27
2023-12-10T00:17:59.127Z,75.00
2023-12-10T00:20:26.775Z,75.03
2023-12-10T00:22:54.283Z,75.02
2023-12-10T00:25:22.010Z,75.37
2023-12-10T00:27:49.659Z,75.17
2023-12-10T00:30:17.402Z,75.15
2023-12-10T00:32:45.125Z,74.96
2023-12-10T00:35:12.776Z,74.65
2023-12-10T00:37:40.330Z,74.73
2023-12-10T00:40:10.390Z,74.64
2023-12-10T00:42:37.964Z,74.64
2023-12-10T00:45:06.577Z,74.60
2023-12-10T00:47:34.165Z,74.32
2023-12-10T00:50:01.818Z,74.23
2023-12-10T00:52:30.413Z,73.86
2023-12-10T00:57:52.942Z,74.06
2023-12-10T01:00:20.972Z,74.02
2023-12-10T01:02:49.747Z,73.87
2023-12-10T01:05:17.361Z,73.77
2023-12-10T01:07:44.953Z,73.85
2023-12-10T01:10:12.869Z,74.03
2023-12-10T01:12:40.568Z,74.11
2023-12-10T01:15:11.739Z,74.05
2023-12-10T01:17:39.408Z,73.94
2023-12-10T01:20:08.064Z,73.83
2023-12-10T01:22:35.561Z,73.67
2023-12-10T01:25:03.731Z,73.66
2023-12-10T01:27:32.390Z,73.26
2023-12-10T01:30:00.712Z,73.28
2023-12-10T01:32:28.835Z,73.43
2023-12-10T01:34:56.781Z,73.41
2023-12-10T01:37:24.426Z,73.45
2023-12-10T01:39:52.236Z,73.43
2023-12-10T01:42:19.740Z,73.40
2023-12-10T01:44:47.242Z,73.24
2023-12-10T01:47:14.734Z,73.42
2023-12-10T01:49:42.258Z,73.45
2023-12-10T01:52:09.917Z,73.48
2023-12-10T01:54:37.444Z,73.53
2023-12-10T01:57:07.325Z,73.57
2023-12-10T01:59:38.201Z,73.81
2023-12-10T02:02:05.868Z,74.02
2023-12-10T02:04:33.389Z,73.86
2023-12-10T02:07:01.331Z,73.80
2023-12-10T02:09:29.014Z,74.20
2023-12-10T02:11:57.691Z,74.33
2023-12-10T02:14:25.193Z,74.70
2023-12-10T02:16:52.702Z,74.76
2023-12-10T02:19:20.362Z,74.77
2023-12-10T02:21:48.503Z,74.50
2023-12-10T02:24:16.579Z,74.28
2023-12-10T02:26:44.138Z,74.38
2023-12-10T02:29:11.627Z,74.36
2023-12-10T02:31:39.338Z,74.33
2023-12-10T02:34:07.379Z,74.43
2023-12-10T02:36:34.969Z,74.28
2023-12-10T02:39:02.507Z,74.07
2023-12-10T02:41:30.029Z,73.96
2023-12-10T02:43:57.599Z,73.66
2023-12-10T02:46:25.100Z,73.33
2023-12-10T02:48:52.726Z,73.12
2023-12-10T02:51:20.451Z,73.03
2023-12-10T02:53:48.000Z,72.88
2023-12-10T02:56:15.497Z,73.04
2023-12-10T02:58:43.255Z,73.02
2023-12-10T03:01:11.401Z,72.93
2023-12-10T03:03:39.094Z,72.82
2023-12-10T03:06:08.554Z,72.41
2023-12-10T03:08:36.070Z,72.37
2023-12-10T03:11:03.613Z,72.22
2023-12-10T03:13:31.115Z,72.27
2023-12-10T03:15:58.762Z,72.00
2023-12-10T03:18:27.091Z,72.31
2023-12-10T03:20:54.782Z,72.59
2023-12-10T03:23:22.465Z,72.52
2023-12-10T03:25:49.935Z,72.44
2023-12-10T03:28:17.513Z,72.76
2023-12-10T03:30:45.144Z,73.22
2023-12-10T03:33:12.911Z,73.03
2023-12-10T03:35:40.690Z,73.11
2023-12-10T03:38:08.193Z,72.94
2023-12-10T03:40:35.710Z,72.84
2023-12-10T03:43:03.259Z,72.99
2023-12-10T03:45:30.915Z,73.13
2023-12-10T03:47:58.510Z,73.43
2023-12-10T03:50:26.777Z,73.10
2023-12-10T03:52:54.438Z,73.28
2023-12-10T03:55:22.107Z,73.51
2023-12-10T03:57:50.595Z,73.45
2023-12-10T04:00:19.153Z,73.67
2023-12-10T04:02:47.114Z,73.54
2023-12-10T04:05:15.009Z,73.35
2023-12-10T04:07:42.644Z,73.35
2023-12-10T04:10:10.713Z,73.52
2023-12-10T04:12:38.622Z,73.67
2023-12-10T04:15:07.054Z,73.67
2023-12-10T04:17:34.660Z,73.87
2023-12-10T04:20:02.335Z,74.04
2023-12-10T04:22:30.327Z,73.99
2023-12-10T04:24:58.087Z,73.83
2023-12-10T04:27:26.099Z,74.03
2023-12-10T04:29:53.993Z,74.33
2023-12-10T04:32:21.586Z,74.06
2023-12-10T04:34:49.106Z,74.19
2023-12-10T04:37:16.680Z,74.32
2023-12-10T04:39:44.302Z,74.35
2023-12-10T04:42:12.262Z,74.26
2023-12-10T04:44:39.993Z,74.05
2023-12-10T04:47:07.835Z,74.10
2023-12-10T04:49:35.470Z,74.26
2023-12-10T04:52:03.182Z,74.23
2023-12-10T04:54:30.862Z,74.00
2023-12-10T04:56:58.505Z,73.80
2023-12-10T04:59:26.054Z,73.66
2023-12-10T05:01:53.564Z,73.69
2023-12-10T05:04:21.201Z,73.66
2023-12-10T05:06:49.265Z,73.57
2023-12-10T05:09:17.223Z,73.27
2023-12-10T05:11:44.758Z,73.43
2023-12-10T05:14:12.294Z,73.62
2023-12-10T05:16:39.766Z,73.55
2023-12-10T05:19:07.324Z,73.70
2023-12-10T05:21:35.945Z,73.80
2023-12-10T05:24:04.118Z,73.88
2023-12-10T05:26:31.661Z,73.91
2023-12-10T05:28:59.177Z,74.27
2023-12-10T05:31:26.728Z,74.52
2023-12-10T05:33:54.378Z,74.38
2023-12-10T05:36:22.152Z,74.50
2023-12-10T05:38:49.806Z,74.62
2023-12-10T05:41:17.334Z,74.47
2023-12-10T05:43:45.084Z,74.38
2023-12-10T05:46:12.655Z,74.25
2023-12-10T05:48:40.303Z,74.32
2023-12-10T05:51:07.945Z,74.56
2023-12-10T05:53:35.427Z,74.39
2023-12-10T05:56:02.919Z,74.58
2023-12-10T05:58:30.474Z,74.87
2023-12-10T06:00:58.110Z,74.86
2023-12-10T06:03:26.380Z,74.75
2023-12-10T06:05:54.123Z,75.00
2023-12-10T06:08:21.765Z,75.21
2023-12-10T06:10:49.345Z,75.11
2023-12-10T06:13:16.942Z,75.27
2023-12-10T06:15:47.542Z,75.25
2023-12-10T06:18:15.677Z,75.36
2023-12-10T06:20:43.372Z,75.25
2023-12-10T06:23:10.898Z,75.10
2023-12-10T06:25:38.418Z,74.92
2023-12-10T06:28:06.538Z,75.27
2023-12-10T06:30:34.091Z,75.34
2023-12-10T06:33:01.754Z,75.28
2023-12-10T06:35:29.343Z,75.27
2023-12-10T06:37:57.013Z,75.04
2023-12-10T06:40:24.608Z,74.97
2023-12-10T06:42:52.278Z,74.76
2023-12-10T06:45:21.289Z,74.72
2023-12-10T06:47:48.959Z,74.92
2023-12-10T06:50:16.919Z,75.08
2023-12-10T06:52:44.437Z,75.08
2023-12-10T06:55:11.984Z,75.10
2023-12-10T06:57:39.553Z,75.17
2023-12-10T07:00:08.078Z,75.15
2023-12-10T07:02:35.640Z,75.10
2023-12-10T07:05:03.637Z,75.19
2023-12-10T07:07:31.178Z,75.33
2023-12-10T07:09:59.070Z,75.23
2023-12-10T07:12:27.012Z,75.08
2023-12-10T07:14:54.757Z,74.69
2023-12-10T07:17:22.262Z,74.62
2023-12-10T07:19:50.462Z,74.83
2023-12-10T07:22:18.092Z,74.51
2023-12-10T07:24:45.669Z,74.23
2023-12-10T07:27:13.235Z,73.89
2023-12-10T07:29:40.796Z,74.13
2023-12-10T07:32:08.301Z,74.22
2023-12-10T07:34:36.065Z,74.19
2023-12-10T07:37:04.054Z,74.29
2023-12-10T07:39:31.657Z,74.65
2023-12-10T07:42:00.259Z,74.31
2023-12-10T07:44:27.855Z,74.13
2023-12-10T07:46:55.426Z,73.75
2023-12-10T07:49:23.426Z,73.68
2023-12-10T07:51:51.063Z,73.65
2023-12-10T07:54:18.603Z,73.77
2023-12-10T07:56:46.253Z,73.79
2023-12-10T07:59:14.019Z,73.82
2023-12-10T08:01:41.660Z,74.22
2023-12-10T08:04:09.461Z,74.19
2023-12-10T08:06:37.078Z,74.37
2023-12-10T08:09:07.596Z,74.22
2023-12-10T08:11:36.242Z,74.29
2023-12-10T08:14:04.596Z,74.14
2023-12-10T08:16:35.236Z,74.08
2023-12-10T08:19:04.409Z,73.92
2023-12-10T08:21:32.090Z,74.19
2023-12-10T08:23:59.606Z,74.38
2023-12-10T08:26:27.141Z,73.89
2023-12-10T08:28:54.653Z,74.24
2023-12-10T08:31:22.194Z,74.43
2023-12-10T08:33:49.918Z,74.31
2023-12-10T08:36:17.630Z,73.99
2023-12-10T08:38:45.213Z,74.07
2023-12-10T08:41:12.722Z,73.96
2023-12-10T08:43:40.262Z,74.06
2023-12-10T08:46:09.601Z,74.35
2023-12-10T08:48:37.249Z,74.47
2023-12-10T08:51:05.124Z,74.72
2023-12-10T08:53:32.702Z,75.05
2023-12-10T08:56:00.250Z,75.27
2023-12-10T08:58:30.877Z,75.19
2023-12-10T09:00:58.493Z,75.36
2023-12-10T09:03:26.180Z,75.61
2023-12-10T09:05:53.870Z,75.81
2023-12-10T09:08:21.569Z,76.20
2023-12-10T09:10:49.066Z,75.94
2023-12-10T09:13:16.608Z,75.90
2023-12-10T09:15:45.165Z,76.12
2023-12-10T09:18:12.985Z,76.08
2023-12-10T09:20:40.546Z,76.28
2023-12-10T09:23:08.222Z,76.57
2023-12-10T09:25:35.729Z,76.21
2023-12-10T09:28:06.224Z,76.17
2023-12-10T09:30:35.684Z,76.32
2023-12-10T09:33:03.718Z,76.73
2023-12-10T09:35:31.370Z,76.87
2023-12-10T09:37:58.900Z,76.84
2023-12-10T09:40:26.495Z,76.73
2023-12-10T09:42:54.486Z,76.77
2023-12-10T09:45:22.030Z,76.82
2023-12-10T09:47:49.661Z,76.78
2023-12-10T09:50:17.986Z,76.88
2023-12-10T09:52:45.518Z,76.91
2023-12-10T09:55:13.118Z,77.03
2023-12-10T09:57:40.798Z,76.98
2023-12-10T10:00:09.228Z,76.79
2023-12-10T10:02:36.995Z,76.49
2023-12-10T10:05:06.186Z,76.59
2023-12-10T10:07:33.769Z,76.30
2023-12-10T10:10:01.564Z,76.06
2023-12-10T10:12:31.272Z,75.92
2023-12-10T10:14:59.748Z,75.79
2023-12-10T10:17:28.817Z,74.93
2023-12-10T10:19:57.283Z,74.57
2023-12-10T10:22:25.623Z,73.92
2023-12-10T10:24:53.670Z,73.47
2023-12-10T10:27:21.694Z,73.43
2023-12-10T10:29:54.209Z,73.34
2023-12-10T10:32:22.656Z,73.14
2023-12-10T10:34:51.195Z,73.35
2023-12-10T10:37:19.243Z,73.82
2023-12-10T10:39:49.447Z,74.03
2023-12-10T10:42:20.256Z,74.07
2023-12-10T10:44:48.112Z,73.74
2023-12-10T10:47:19.884Z,73.76
2023-12-10T10:50:19.073Z,73.80
2023-12-10T10:52:36.683Z,73.81
2023-12-10T10:55:04.891Z,73.95
2023-12-10T10:57:37.233Z,74.08
2023-12-10T11:00:20.987Z,74.18
2023-12-10T11:02:51.295Z,74.48
2023-12-10T11:05:31.495Z,74.43
2023-12-10T11:07:59.484Z,74.61
2023-12-10T11:10:27.023Z,74.72
2023-12-10T11:12:55.653Z,74.71
2023-12-10T11:15:26.833Z,74.43
2023-12-10T11:18:01.092Z,74.44
2023-12-10T11:20:32.995Z,74.33
2023-12-10T11:23:07.210Z,74.24
2023-12-10T11:25:35.010Z,74.30
2023-12-10T11:28:12.671Z,73.82
2023-12-10T11:30:41.311Z,73.69
2023-12-10T11:33:10.254Z,73.53
2023-12-10T11:35:37.980Z,73.79
2023-12-10T11:38:06.106Z,74.13
2023-12-10T11:40:34.087Z,74.38
2023-12-10T11:43:08.638Z,74.50
2023-12-10T11:45:37.261Z,74.56
2023-12-10T11:48:08.196Z,74.43
2023-12-10T11:50:37.722Z,74.56
2023-12-10T11:53:05.581Z,75.00
2023-12-10T11:55:33.226Z,75.34
2023-12-10T11:58:01.072Z,75.37
2023-12-10T12:00:28.747Z,75.36
2023-12-10T12:02:56.497Z,75.13
2023-12-10T12:05:24.191Z,75.15
2023-12-10T12:07:52.036Z,75.09
2023-12-10T12:10:19.906Z,75.18
2023-12-10T12:12:48.415Z,75.39
2023-12-10T12:15:16.817Z,75.06
2023-12-10T12:17:45.486Z,74.94
2023-12-10T12:20:20.371Z,74.65
2023-12-10T12:22:49.401Z,74.61
2023-12-10T12:25:18.038Z,74.39
2023-12-10T12:27:46.930Z,74.40
2023-12-10T12:30:16.428Z,74.78
2023-12-10T12:32:44.179Z,74.90
2023-12-10T12:35:11.942Z,75.07
2023-12-10T12:37:39.580Z,75.45
2023-12-10T12:40:08.018Z,75.49
2023-12-10T12:42:35.712Z,75.69
2023-12-10T12:45:04.055Z,75.75
2023-12-10T12:47:32.027Z,75.84
2023-12-10T12:50:00.065Z,75.53
2023-12-10T12:52:28.245Z,75.55
2023-12-10T12:54:55.889Z,75.62
2023-12-10T12:57:23.590Z,75.61
2023-12-10T12:59:51.112Z,75.54
2023-12-10T13:02:19.462Z,75.48
2023-12-10T13:04:47.456Z,75.91
2023-12-10T13:07:15.927Z,75.88
2023-12-10T13:09:43.627Z,76.00
2023-12-10T13:12:11.275Z,76.27
2023-12-10T13:15:51.026Z,76.20
2023-12-10T13:18:19.611Z,75.81
2023-12-10T13:20:47.494Z,75.81
2023-12-10T13:23:15.072Z,76.08
2023-12-10T13:25:42.618Z,76.07
2023-12-10T13:28:11.101Z,75.85
2023-12-10T13:30:38.837Z,76.11
2023-12-10T13:33:06.561Z,76.13
2023-12-10T13:35:34.280Z,75.99
2023-12-10T13:38:01.979Z,76.31
2023-12-10T13:40:29.517Z,76.63
2023-12-10T13:42:57.145Z,77.22
2023-12-10T13:45:24.747Z,77.10
2023-12-10T13:47:52.364Z,77.28
2023-12-10T13:50:19.917Z,77.49
2023-12-10T13:52:47.523Z,77.73
2023-12-10T13:55:15.180Z,77.88
2023-12-10T13:57:42.880Z,77.99
2023-12-10T14:00:13.665Z,77.98
2023-12-10T14:02:41.360Z,78.03
2023-12-10T14:05:09.456Z,78.51
2023-12-10T14:07:37.056Z,78.98
2023-12-10T14:10:05.977Z,79.28
2023-12-10T14:12:33.963Z,79.11
2023-12-10T14:15:01.631Z,78.76
2023-12-10T14:17:29.562Z,78.82
2023-12-10T14:19:57.297Z,79.12
2023-12-10T14:22:24.936Z,79.04
2023-12-10T14:24:52.558Z,78.95
2023-12-10T14:27:20.215Z,78.80
2023-12-10T14:29:47.814Z,78.62
2023-12-10T14:32:16.171Z,78.86
2023-12-10T14:34:44.625Z,79.19
2023-12-10T14:37:12.278Z,79.42
2023-12-10T14:39:40.027Z,79.40
2023-12-10T14:42:07.788Z,79.13
2023-12-10T14:44:35.306Z,79.21
2023-12-10T14:47:02.960Z,79.17
2023-12-10T14:49:30.836Z,79.42
2023-12-10T14:51:58.673Z,79.54
2023-12-10T14:54:26.309Z,79.41
2023-12-10T14:56:53.971Z,79.36
2023-12-10T14:59:21.539Z,79.62
2023-12-10T15:01:58.934Z,79.78
2023-12-10T15:04:33.826Z,79.92
2023-12-10T15:07:01.572Z,79.96
2023-12-10T15:09:29.225Z,80.29
2023-12-10T15:11:56.720Z,80.20
2023-12-10T15:14:24.362Z,80.07
2023-12-10T15:16:51.952Z,79.84
2023-12-10T15:19:22.008Z,79.45
2023-12-10T15:21:49.659Z,79.14
2023-12-10T15:24:17.212Z,78.99
2023-12-10T15:26:44.758Z,78.86
2023-12-10T15:29:12.289Z,78.89
2023-12-10T15:31:39.830Z,78.66
2023-12-10T15:34:07.442Z,78.59
2023-12-10T15:36:35.076Z,78.13
2023-12-10T15:39:02.894Z,77.97
2023-12-10T15:41:30.409Z,78.01
2023-12-10T15:43:58.204Z,78.11
2023-12-10T15:46:25.797Z,78.13
2023-12-10T15:48:54.521Z,77.90
2023-12-10T15:51:22.572Z,77.86
2023-12-10T15:53:50.677Z,78.16
2023-12-10T15:56:18.232Z,78.29
2023-12-10T15:58:45.797Z,78.51
2023-12-10T16:01:17.246Z,78.90
2023-12-10T16:03:45.475Z,78.69
2023-12-10T16:06:14.436Z,78.63
2023-12-10T16:08:43.203Z,78.69
2023-12-10T16:11:10.895Z,78.85
2023-12-10T16:13:38.452Z,79.34
2023-12-10T16:16:06.762Z,79.23
2023-12-10T16:18:34.547Z,78.95
2023-12-10T16:21:04.794Z,79.12
2023-12-10T16:23:33.626Z,79.19
2023-12-10T16:26:01.196Z,79.20
2023-12-10T16:28:29.140Z,79.20
2023-12-10T16:30:57.795Z,79.15
2023-12-10T16:33:26.134Z,78.96
2023-12-10T16:35:53.856Z,79.15
2023-12-10T16:38:22.475Z,79.30
2023-12-10T16:40:50.058Z,79.31
2023-12-10T16:43:18.027Z,79.59
2023-12-10T16:45:45.587Z,79.37
2023-12-10T16:48:13.237Z,79.19
2023-12-10T16:50:41.103Z,79.54
2023-12-10T16:53:08.674Z,79.93
2023-12-10T16:55:36.177Z,79.99
2023-12-10T16:58:03.777Z,79.89
2023-12-10T17:00:31.540Z,79.49
2023-12-10T17:02:59.278Z,79.53
2023-12-10T17:05:26.923Z,79.91
2023-12-10T17:07:54.523Z,80.23
2023-12-10T17:10:22.514Z,80.40
2023-12-10T17:12:50.080Z,80.23
2023-12-10T17:15:18.920Z,80.39
2023-12-10T17:17:46.539Z,80.32
2023-12-10T17:20:14.664Z,80.69
2023-12-10T17:22:42.511Z,80.60
2023-12-10T17:25:11.119Z,80.50
2023-12-10T17:27:38.878Z,80.46
2023-12-10T17:30:07.641Z,80.72
2023-12-10T17:32:35.312Z,80.81
2023-12-10T17:35:04.364Z,80.92
2023-12-10T17:37:32.558Z,81.01
2023-12-10T17:40:00.493Z,81.11
2023-12-10T17:42:28.300Z,81.36
2023-12-10T17:44:57.645Z,81.74
2023-12-10T17:47:25.633Z,81.76
2023-12-10T17:49:54.023Z,81.78
2023-12-10T17:52:22.088Z,81.58
2023-12-10T17:54:50.099Z,81.77
2023-12-10T17:57:17.834Z,81.95
2023-12-10T17:59:45.393Z,81.82
2023-12-10T18:02:12.959Z,81.68
2023-12-10T18:04:40.503Z,81.53
2023-12-10T18:07:08.120Z,81.85
2023-12-10T18:09:35.789Z,81.83
2023-12-10T18:12:03.510Z,81.89
2023-12-10T18:14:31.114Z,81.97
2023-12-10T18:16:58.691Z,81.61
2023-12-10T18:19:26.372Z,81.66
2023-12-10T18:21:54.147Z,82.07
2023-12-10T18:24:21.725Z,82.02
2023-12-10T18:26:49.266Z,81.81
2023-12-10T18:29:16.782Z,81.61
2023-12-10T18:31:44.383Z,81.69
2023-12-10T18:34:12.162Z,81.66
2023-12-10T18:36:39.788Z,81.76
2023-12-10T18:39:07.413Z,81.71
2023-12-10T18:41:34.982Z,81.68
2023-12-10T18:44:02.625Z,81.53
2023-12-10T18:46:30.562Z,81.59
2023-12-10T18:48:58.391Z,81.60
2023-12-10T18:51:26.106Z,81.54
2023-12-10T18:53:53.680Z,81.23
2023-12-10T18:56:21.503Z,81.02
2023-12-10T18:58:50.280Z,81.19
2023-12-10T19:01:17.957Z,81.02
2023-12-10T19:03:46.113Z,80.92
2023-12-10T19:06:13.846Z,80.88
2023-12-10T19:08:41.740Z,80.77
2023-12-10T19:11:09.904Z,80.45
2023-12-10T19:13:37.489Z,80.68
2023-12-10T19:16:05.797Z,80.41
2023-12-10T19:18:33.557Z,80.79
2023-12-10T19:21:03.943Z,80.75
2023-12-10T19:23:31.523Z,80.60
2023-12-10T19:25:59.068Z,80.74
2023-12-10T19:28:27.403Z,80.93
2023-12-10T19:30:55.041Z,81.09
2023-12-10T19:33:22.931Z,81.06
2023-12-10T19:35:50.578Z,80.85
2023-12-10T19:38:18.199Z,80.82
2023-12-10T19:40:45.719Z,80.84
2023-12-10T19:43:13.441Z,80.92
2023-12-10T19:45:41.233Z,80.99
2023-12-10T19:48:09.049Z,80.89
2023-12-10T19:50:36.768Z,80.72
2023-12-10T19:53:04.427Z,80.66
2023-12-10T19:55:31.968Z,80.72
2023-12-10T19:57:59.612Z,80.70
2023-12-10T20:00:27.998Z,80.88
2023-12-10T20:02:55.713Z,80.80
2023-12-10T20:05:23.692Z,80.76
2023-12-10T20:07:51.432Z,80.95
2023-12-10T20:10:19.072Z,81.05
2023-12-10T20:12:46.666Z,81.13
2023-12-10T20:15:15.111Z,80.87
2023-12-10T20:17:42.870Z,80.84
2023-12-10T20:20:14.955Z,80.64
2023-12-10T20:22:42.544Z,80.45
2023-12-10T20:25:15.778Z,80.43
2023-12-10T20:27:48.295Z,80.65
2023-12-10T20:30:18.575Z,80.40
2023-12-10T20:32:46.871Z,80.04
2023-12-10T20:35:14.746Z,80.01
2023-12-10T20:37:44.989Z,79.84
2023-12-10T20:40:14.234Z,79.71
2023-12-10T20:42:41.987Z,79.83
2023-12-10T20:45:09.782Z,80.03
2023-12-10T20:47:37.394Z,79.89
2023-12-10T20:50:06.034Z,80.07
2023-12-10T20:52:33.861Z,79.79
2023-12-10T20:55:01.427Z,79.34
2023-12-10T20:57:29.324Z,79.38
2023-12-10T20:59:57.238Z,79.60
2023-12-10T21:02:29.419Z,79.87
2023-12-10T21:04:58.452Z,79.58
2023-12-10T21:07:26.128Z,79.67
2023-12-10T21:09:53.757Z,79.86
2023-12-10T21:12:21.348Z,79.53
2023-12-10T21:14:49.080Z,79.44
2023-12-10T21:17:17.505Z,79.61
2023-12-10T21:19:45.363Z,79.75
2023-12-10T21:22:13.466Z,79.90
2023-12-10T21:24:42.274Z,79.89
2023-12-10T21:27:09.897Z,79.73
2023-12-10T21:29:37.441Z,79.75
2023-12-10T21:32:05.622Z,79.71
2023-12-10T21:34:33.492Z,79.78
2023-12-10T21:37:01.342Z,80.10
2023-12-10T21:39:29.110Z,80.33
2023-12-10T21:41:56.700Z,80.29
2023-12-10T21:44:24.346Z,80.19
2023-12-10T21:46:51.905Z,80.10
2023-12-10T21:49:19.617Z,80.43
2023-12-10T21:51:47.272Z,80.30
2023-12-10T21:54:14.828Z,80.33
2023-12-10T21:56:42.492Z,80.44
2023-12-10T21:59:10.152Z,80.42
2023-12-10T22:01:38.585Z,79.86
2023-12-10T22:04:06.380Z,79.91
2023-12-10T22:06:34.191Z,80.12
2023-12-10T22:09:01.808Z,79.94
2023-12-10T22:11:29.385Z,80.18
2023-12-10T22:13:57.253Z,80.20
2023-12-10T22:16:24.842Z,79.93
2023-12-10T22:18:52.948Z,79.51
2023-12-10T22:21:21.722Z,79.63
2023-12-10T22:23:49.333Z,80.10
2023-12-10T22:26:16.916Z,80.12
2023-12-10T22:28:44.459Z,80.38
2023-12-10T22:31:12.187Z,80.31
2023-12-10T22:33:42.324Z,80.08
2023-12-10T22:36:11.721Z,80.13
2023-12-10T22:38:43.153Z,80.48
2023-12-10T22:41:10.713Z,80.56
2023-12-10T22:43:38.407Z,80.74
2023-12-10T22:46:06.083Z,80.56
2023-12-10T22:48:34.000Z,80.44
2023-12-10T22:51:01.692Z,80.36
2023-12-10T22:53:29.185Z,80.65
2023-12-10T22:55:56.819Z,80.56
2023-12-10T22:58:24.364Z,80.86
2023-12-10T23:00:52.092Z,80.93
2023-12-10T23:03:19.791Z,80.93
2023-12-10T23:05:47.819Z,80.88
2023-12-10T23:08:15.477Z,81.18
2023-12-10T23:10:43.042Z,80.97
2023-12-10T23:13:10.620Z,80.76
2023-12-10T23:15:38.254Z,80.81
2023-12-10T23:18:06.334Z,80.98
2023-12-10T23:20:34.109Z,80.86
2023-12-10T23:23:01.685Z,80.48
2023-12-10T23:25:29.212Z,80.46
2023-12-10T23:27:56.859Z,80.69
2023-12-10T23:30:25.484Z,81.02
2023-12-10T23:32:56.286Z,81.00
2023-12-10T23:35:23.877Z,80.96
2023-12-10T23:37:51.428Z,80.84
2023-12-10T23:40:18.976Z,80.73
2023-12-10T23:42:46.583Z,81.06
2023-12-10T23:45:14.149Z,81.16
2023-12-10T23:47:41.712Z,81.06
2023-12-10T23:50:10.532Z,81.00
2023-12-10T23:52:39.677Z,80.81
2023-12-10T23:55:07.814Z,80.50
2023-12-10T23:57:35.406Z,80.55
